Los Indios, Texas
Current Conditions -  °F | °C
As of 2:52 PM on Thursday 18 Dec 2014 (Local Time) from KHRL Reporting Station
Overcast Overcast  
Wind Chill: 72°   Ceiling: 3400
Heat Index: 72°   Visibility: 8mi
Dew Point: 69°   Wind: 6mph
Humidity: 91%   Direction: 300°WNW
Pressure: 29.95"   Gusts: NA
Location:  26.05°N, 97.74°W
Report Text: KHRL 182052Z 30005KT 8SM SCT027 BKN034 OVC050 22/21 A2995 RMK AO2 SLP140 60000 T02220206 56014
Loading
Personal Weather Stations






























Interactive Weather Map New forecast layout! Learn more

10-Day Weather Forecast

Advertisements
Track Severe Weather on mobile